Observations for Trim Patrick St
| Time | AQI | Temp °C | Hum % | Pres Pa | CO μg/m³ | H₂S μg/m³ | NO μg/m³ | NO₂ μg/m³ | O₃ μg/m³ | SO₂ μg/m³ | PM1 μg/m³ | PM2.5 μg/m³ | PM10 μg/m³ |
|---|---|---|---|---|---|---|---|---|---|---|---|---|---|
| Thursday 6 August 2026 | |||||||||||||
| 08:21 | 2 | 16.6 | 70 | 38,460 | 0.29 | 0 | 2.46 | 6.8 | 30.27 | 0 | 2 | 5.87 | 6.46 |
| 08:20 | 2 | 16.5 | 71 | 38,460 | 0.29 | 0 | 2.47 | 9.46 | 25.34 | 0 | 2 | 5.83 | 6.41 |
| 08:19 | 2 | 16.5 | 70 | 38,460 | 0.29 | 0 | 2.47 | 9.17 | 27.45 | 0 | 2 | 5.86 | 6.45 |
| 08:18 | 2 | 16.4 | 70 | 38,460 | 0.29 | 0 | 2.46 | 7.93 | 26.69 | 0 | 2.86 | 6.57 | 7.22 |
| 08:17 | 2 | 16.4 | 71 | 38,460 | 0.28 | 0 | 2.48 | 9.3 | 25.69 | 0 | 2 | 5.83 | 6.42 |
| 08:16 | 2 | 16.3 | 70 | 38,460 | 0.28 | 0 | 2.57 | 8.32 | 24.17 | 0 | 2 | 5.85 | 6.43 |
| 08:15 | 2 | 16.2 | 70 | 38,460 | 0.3 | 0 | 2.49 | 8.08 | 25.9 | 0 | 2 | 5.84 | 6.42 |
| 08:14 | 2 | 16.2 | 72 | 38,460 | 0.3 | 0 | 2.44 | 8.75 | 27.82 | 0 | 2 | 5.78 | 6.35 |
| 08:13 | 2 | 16.1 | 71 | 38,460 | 0.31 | 0 | 2.49 | 11.79 | 19.89 | 0 | 2 | 5.81 | 6.39 |
| 08:12 | 2 | 16.1 | 71 | 38,460 | 0.3 | 0 | 2.64 | 11.28 | 22.75 | 0 | 2 | 5.07 | 5.58 |
| 08:11 | 2 | 16.1 | 71 | 38,460 | 0.29 | 0 | 2.66 | 10.22 | 26.64 | 0 | 2 | 5.06 | 5.57 |
| 07:59 | 2 | 15.4 | 73 | 38,460 | 0.31 | 0 | 2.66 | 11.08 | 26.41 | 0 | 2.86 | 5.7 | 6.27 |
| 07:58 | 2 | 15.4 | 73 | 38,460 | 0.3 | 0 | 2.65 | 11.99 | 23.61 | 0 | 2 | 5.69 | 6.26 |
| 07:57 | 2 | 15.4 | 73 | 38,460 | 0.32 | 0 | 2.67 | 11.31 | 25.58 | 0 | 2 | 5.68 | 6.25 |
| 07:56 | 2 | 15.3 | 73 | 38,460 | 0.31 | 0 | 2.65 | 10.85 | 27 | 0 | 2 | 6.39 | 7.02 |
| 07:55 | 2 | 15.2 | 73 | 38,460 | 0.32 | 0 | 2.68 | 12.17 | 23.32 | 0 | 2 | 5.68 | 6.25 |
| 07:54 | 2 | 15.2 | 73 | 38,460 | 0.32 | 0 | 2.67 | 13.78 | 22.11 | 0 | 2 | 5.67 | 6.24 |
| 07:53 | 2 | 15.2 | 73 | 38,460 | 0.33 | 0 | 2.68 | 11.45 | 21.37 | 0 | 2.86 | 5.66 | 6.23 |
| 07:52 | 2 | 15.1 | 73 | 38,460 | 0.33 | 0 | 2.7 | 16.02 | 19.47 | 0 | 2 | 6.38 | 7.02 |
| 07:51 | 2 | 15 | 73 | 38,460 | 0.34 | 0 | 2.84 | 12.03 | 24.01 | 0 | 2.86 | 6.37 | 7 |